sensor_id;sensor_type;location;lat;lon;timestamp;pressure;altitude;pressure_sealevel;temperature;humidity
72055;BME280;59936;51.490;5.436;2023-03-26T00:00:59;100580.69;;;7.75;83.84
72055;BME280;59936;51.490;5.436;2023-03-26T00:03:25;100579.19;;;7.72;84.27
72055;BME280;59936;51.490;5.436;2023-03-26T00:06:08;100579.63;;;7.67;83.88
72055;BME280;59936;51.490;5.436;2023-03-26T00:08:36;100585.41;;;7.63;85.66
72055;BME280;59936;51.490;5.436;2023-03-26T00:11:03;100575.34;;;7.57;83.60
72055;BME280;59936;51.490;5.436;2023-03-26T00:13:30;100582.34;;;7.58;82.83
72055;BME280;59936;51.490;5.436;2023-03-26T00:15:56;100573.97;;;7.53;83.16
72055;BME280;59936;51.490;5.436;2023-03-26T00:18:21;100582.78;;;7.53;84.07
72055;BME280;59936;51.490;5.436;2023-03-26T00:20:47;100582.28;;;7.50;84.75
72055;BME280;59936;51.490;5.436;2023-03-26T00:23:13;100577.25;;;7.47;84.28
72055;BME280;59936;51.490;5.436;2023-03-26T00:25:39;100574.78;;;7.36;82.10
72055;BME280;59936;51.490;5.436;2023-03-26T00:28:05;100567.22;;;7.31;82.25
72055;BME280;59936;51.490;5.436;2023-03-26T00:30:31;100570.56;;;7.33;84.72
72055;BME280;59936;51.490;5.436;2023-03-26T00:32:57;100568.69;;;7.25;82.65
72055;BME280;59936;51.490;5.436;2023-03-26T00:35:23;100563.66;;;7.22;81.89
72055;BME280;59936;51.490;5.436;2023-03-26T00:37:49;100565.38;;;7.14;82.09
72055;BME280;59936;51.490;5.436;2023-03-26T00:40:15;100555.97;;;7.10;82.26
72055;BME280;59936;51.490;5.436;2023-03-26T00:42:41;100564.88;;;7.01;82.24
72055;BME280;59936;51.490;5.436;2023-03-26T00:45:07;100564.88;;;7.01;82.24
72055;BME280;59936;51.490;5.436;2023-03-26T00:47:33;100565.03;;;6.99;82.03
72055;BME280;59936;51.490;5.436;2023-03-26T00:49:59;100553.09;;;7.03;82.84
72055;BME280;59936;51.490;5.436;2023-03-26T00:52:25;100554.63;;;7.06;81.92
72055;BME280;59936;51.490;5.436;2023-03-26T00:54:51;100547.47;;;7.06;81.25
72055;BME280;59936;51.490;5.436;2023-03-26T00:57:18;100545.03;;;7.13;81.51
72055;BME280;59936;51.490;5.436;2023-03-26T00:59:44;100549.63;;;7.20;81.43
72055;BME280;59936;51.490;5.436;2023-03-26T01:02:12;100546.09;;;7.29;82.76
72055;BME280;59936;51.490;5.436;2023-03-26T01:04:38;100532.78;;;7.29;80.53
72055;BME280;59936;51.490;5.436;2023-03-26T01:07:10;100530.00;;;7.21;82.72
72055;BME280;59936;51.490;5.436;2023-03-26T01:09:39;100530.00;;;7.21;82.72
72055;BME280;59936;51.490;5.436;2023-03-26T01:12:08;100522.75;;;7.14;82.64
72055;BME280;59936;51.490;5.436;2023-03-26T01:14:35;100516.19;;;7.08;82.21
72055;BME280;59936;51.490;5.436;2023-03-26T01:17:04;100512.72;;;7.08;82.94
72055;BME280;59936;51.490;5.436;2023-03-26T01:19:38;100512.53;;;7.09;83.04
72055;BME280;59936;51.490;5.436;2023-03-26T01:22:12;100509.88;;;7.09;82.25
72055;BME280;59936;51.490;5.436;2023-03-26T01:24:39;100504.19;;;7.04;82.30
72055;BME280;59936;51.490;5.436;2023-03-26T01:27:30;100493.97;;;6.99;82.19
72055;BME280;59936;51.490;5.436;2023-03-26T01:30:06;100490.38;;;6.91;82.38
72055;BME280;59936;51.490;5.436;2023-03-26T01:40:51;100471.66;;;6.83;84.12
72055;BME280;59936;51.490;5.436;2023-03-26T01:45:55;100473.53;;;6.73;82.74
72055;BME280;59936;51.490;5.436;2023-03-26T01:48:37;100476.72;;;6.66;82.22
72055;BME280;59936;51.490;5.436;2023-03-26T01:51:04;100475.75;;;6.68;83.51
72055;BME280;59936;51.490;5.436;2023-03-26T01:53:32;100470.44;;;6.68;81.77
72055;BME280;59936;51.490;5.436;2023-03-26T01:58:35;100463.28;;;6.68;81.80
72055;BME280;59936;51.490;5.436;2023-03-26T02:03:52;100455.22;;;6.60;82.49
72055;BME280;59936;51.490;5.436;2023-03-26T02:06:25;100445.72;;;6.57;81.69
72055;BME280;59936;51.490;5.436;2023-03-26T02:08:57;100440.81;;;6.53;81.26
72055;BME280;59936;51.490;5.436;2023-03-26T02:11:25;100443.34;;;6.54;80.93
72055;BME280;59936;51.490;5.436;2023-03-26T02:13:51;100443.34;;;6.54;81.04
72055;BME280;59936;51.490;5.436;2023-03-26T02:16:19;100437.88;;;6.56;81.20
72055;BME280;59936;51.490;5.436;2023-03-26T02:18:46;100438.13;;;6.62;82.68
72055;BME280;59936;51.490;5.436;2023-03-26T02:21:15;100426.31;;;6.75;84.51
72055;BME280;59936;51.490;5.436;2023-03-26T02:23:42;100425.47;;;6.74;82.42
72055;BME280;59936;51.490;5.436;2023-03-26T02:26:09;100425.47;;;6.74;82.42
72055;BME280;59936;51.490;5.436;2023-03-26T02:28:36;100420.59;;;6.70;82.66
72055;BME280;59936;51.490;5.436;2023-03-26T02:31:03;100415.00;;;6.73;82.54
72055;BME280;59936;51.490;5.436;2023-03-26T02:33:30;100419.47;;;6.72;81.84
72055;BME280;59936;51.490;5.436;2023-03-26T02:35:57;100409.50;;;6.74;82.79
72055;BME280;59936;51.490;5.436;2023-03-26T02:38:24;100409.06;;;6.79;81.19
72055;BME280;59936;51.490;5.436;2023-03-26T02:40:50;100406.81;;;6.84;81.95
72055;BME280;59936;51.490;5.436;2023-03-26T02:43:16;100404.16;;;6.84;81.53
72055;BME280;59936;51.490;5.436;2023-03-26T02:45:42;100403.31;;;6.83;82.07
72055;BME280;59936;51.490;5.436;2023-03-26T02:48:08;100405.00;;;6.84;82.24
72055;BME280;59936;51.490;5.436;2023-03-26T02:50:33;100395.53;;;6.90;81.99
72055;BME280;59936;51.490;5.436;2023-03-26T02:52:59;100389.22;;;6.91;83.41
72055;BME280;59936;51.490;5.436;2023-03-26T02:55:25;100392.44;;;6.94;81.89
72055;BME280;59936;51.490;5.436;2023-03-26T02:57:51;100373.66;;;6.96;81.48
72055;BME280;59936;51.490;5.436;2023-03-26T03:00:17;100377.16;;;6.96;81.57
72055;BME280;59936;51.490;5.436;2023-03-26T03:02:43;100372.38;;;7.00;81.91
72055;BME280;59936;51.490;5.436;2023-03-26T03:05:09;100364.69;;;6.97;83.75
72055;BME280;59936;51.490;5.436;2023-03-26T03:07:35;100363.41;;;7.01;81.87
72055;BME280;59936;51.490;5.436;2023-03-26T03:10:01;100362.09;;;7.05;82.10
72055;BME280;59936;51.490;5.436;2023-03-26T03:12:27;100353.78;;;7.08;81.88
72055;BME280;59936;51.490;5.436;2023-03-26T03:14:52;100360.78;;;7.09;83.39
72055;BME280;59936;51.490;5.436;2023-03-26T03:17:18;100360.78;;;7.09;83.39
72055;BME280;59936;51.490;5.436;2023-03-26T03:19:44;100347.88;;;7.14;82.84
72055;BME280;59936;51.490;5.436;2023-03-26T03:22:10;100349.25;;;7.18;82.05
72055;BME280;59936;51.490;5.436;2023-03-26T03:24:36;100336.00;;;7.26;82.04
72055;BME280;59936;51.490;5.436;2023-03-26T03:27:02;100336.00;;;7.26;82.04
72055;BME280;59936;51.490;5.436;2023-03-26T03:29:27;100326.50;;;7.24;82.06
72055;BME280;59936;51.490;5.436;2023-03-26T03:31:53;100327.31;;;7.24;81.80
72055;BME280;59936;51.490;5.436;2023-03-26T03:34:19;100314.69;;;7.26;81.84
72055;BME280;59936;51.490;5.436;2023-03-26T03:36:45;100316.38;;;7.27;81.52
72055;BME280;59936;51.490;5.436;2023-03-26T03:39:11;100315.38;;;7.28;82.10
72055;BME280;59936;51.490;5.436;2023-03-26T03:41:36;100317.34;;;7.26;84.91
72055;BME280;59936;51.490;5.436;2023-03-26T03:44:02;100315.19;;;7.30;83.15
72055;BME280;59936;51.490;5.436;2023-03-26T03:46:28;100316.72;;;7.32;82.20
72055;BME280;59936;51.490;5.436;2023-03-26T03:48:54;100305.06;;;7.33;83.34
72055;BME280;59936;51.490;5.436;2023-03-26T03:51:20;100308.41;;;7.36;82.64
72055;BME280;59936;51.490;5.436;2023-03-26T03:53:46;100309.09;;;7.38;82.29
72055;BME280;59936;51.490;5.436;2023-03-26T03:56:12;100302.25;;;7.35;83.40
72055;BME280;59936;51.490;5.436;2023-03-26T03:58:38;100301.13;;;7.38;82.28
72055;BME280;59936;51.490;5.436;2023-03-26T04:01:03;100305.16;;;7.42;81.79
72055;BME280;59936;51.490;5.436;2023-03-26T04:03:29;100287.34;;;7.42;81.52
72055;BME280;59936;51.490;5.436;2023-03-26T04:05:55;100286.81;;;7.39;83.55
72055;BME280;59936;51.490;5.436;2023-03-26T04:08:22;100277.53;;;7.43;81.91
72055;BME280;59936;51.490;5.436;2023-03-26T04:10:48;100271.88;;;7.46;81.76
72055;BME280;59936;51.490;5.436;2023-03-26T04:13:14;100271.88;;;7.46;81.76
72055;BME280;59936;51.490;5.436;2023-03-26T04:15:40;100269.38;;;7.44;81.67
72055;BME280;59936;51.490;5.436;2023-03-26T04:18:07;100261.69;;;7.41;83.10
72055;BME280;59936;51.490;5.436;2023-03-26T04:20:33;100255.22;;;7.44;82.09
72055;BME280;59936;51.490;5.436;2023-03-26T04:22:59;100248.91;;;7.45;81.98
72055;BME280;59936;51.490;5.436;2023-03-26T04:25:24;100246.06;;;7.46;82.30
72055;BME280;59936;51.490;5.436;2023-03-26T04:27:50;100245.56;;;7.43;84.08
72055;BME280;59936;51.490;5.436;2023-03-26T04:30:17;100237.56;;;7.43;82.38
72055;BME280;59936;51.490;5.436;2023-03-26T04:32:44;100227.22;;;7.40;82.05
72055;BME280;59936;51.490;5.436;2023-03-26T04:35:14;100222.88;;;7.39;82.02
72055;BME280;59936;51.490;5.436;2023-03-26T04:37:41;100222.03;;;7.38;82.14
72055;BME280;59936;51.490;5.436;2023-03-26T04:40:12;100224.88;;;7.37;81.81
72055;BME280;59936;51.490;5.436;2023-03-26T04:42:38;100218.03;;;7.34;81.87
72055;BME280;59936;51.490;5.436;2023-03-26T04:45:04;100214.00;;;7.30;82.14
72055;BME280;59936;51.490;5.436;2023-03-26T04:47:31;100204.84;;;7.24;82.67
72055;BME280;59936;51.490;5.436;2023-03-26T04:49:56;100203.47;;;7.20;82.84
72055;BME280;59936;51.490;5.436;2023-03-26T04:52:22;100195.72;;;7.09;83.04
72055;BME280;59936;51.490;5.436;2023-03-26T04:54:48;100195.72;;;7.09;83.04
72055;BME280;59936;51.490;5.436;2023-03-26T04:57:35;100191.66;;;6.97;83.75
72055;BME280;59936;51.490;5.436;2023-03-26T05:00:05;100191.66;;;6.97;83.75
72055;BME280;59936;51.490;5.436;2023-03-26T05:02:31;100178.66;;;6.94;83.18
72055;BME280;59936;51.490;5.436;2023-03-26T05:04:57;100181.47;;;6.92;83.02
72055;BME280;59936;51.490;5.436;2023-03-26T05:07:23;100178.81;;;6.92;82.84
72055;BME280;59936;51.490;5.436;2023-03-26T05:09:49;100180.47;;;6.85;84.08
72055;BME280;59936;51.490;5.436;2023-03-26T05:12:14;100172.50;;;6.93;83.80
72055;BME280;59936;51.490;5.436;2023-03-26T05:14:40;100169.53;;;6.96;84.30
72055;BME280;59936;51.490;5.436;2023-03-26T05:17:06;100166.56;;;6.99;83.53
72055;BME280;59936;51.490;5.436;2023-03-26T05:19:32;100168.09;;;7.02;83.44
72055;BME280;59936;51.490;5.436;2023-03-26T05:21:58;100161.50;;;7.14;82.80
72055;BME280;59936;51.490;5.436;2023-03-26T05:24:24;100161.50;;;7.14;82.80
72055;BME280;59936;51.490;5.436;2023-03-26T05:26:50;100154.19;;;7.16;82.97
72055;BME280;59936;51.490;5.436;2023-03-26T05:29:16;100142.38;;;7.19;83.47
72055;BME280;59936;51.490;5.436;2023-03-26T05:31:42;100151.72;;;7.23;82.88
72055;BME280;59936;51.490;5.436;2023-03-26T05:34:09;100143.44;;;7.26;82.81
72055;BME280;59936;51.490;5.436;2023-03-26T05:36:35;100143.94;;;7.29;82.92
72055;BME280;59936;51.490;5.436;2023-03-26T05:39:01;100137.44;;;7.32;83.57
72055;BME280;59936;51.490;5.436;2023-03-26T05:41:27;100130.13;;;7.34;83.17
72055;BME280;59936;51.490;5.436;2023-03-26T05:43:53;100135.16;;;7.37;83.03
72055;BME280;59936;51.490;5.436;2023-03-26T05:46:19;100128.00;;;7.38;83.69
72055;BME280;59936;51.490;5.436;2023-03-26T05:48:45;100127.84;;;7.39;83.49
72055;BME280;59936;51.490;5.436;2023-03-26T05:51:12;100121.97;;;7.36;84.45
72055;BME280;59936;51.490;5.436;2023-03-26T05:53:38;100124.19;;;7.40;83.71
72055;BME280;59936;51.490;5.436;2023-03-26T05:56:04;100116.03;;;7.42;84.14
72055;BME280;59936;51.490;5.436;2023-03-26T05:58:31;100106.88;;;7.44;86.18
72055;BME280;59936;51.490;5.436;2023-03-26T06:01:05;100105.38;;;7.42;86.66
72055;BME280;59936;51.490;5.436;2023-03-26T06:03:32;100102.72;;;7.42;84.95
72055;BME280;59936;51.490;5.436;2023-03-26T06:05:58;100096.06;;;7.46;84.82
72055;BME280;59936;51.490;5.436;2023-03-26T06:08:24;100096.91;;;7.46;84.94
72055;BME280;59936;51.490;5.436;2023-03-26T06:10:56;100089.91;;;7.45;86.59
72055;BME280;59936;51.490;5.436;2023-03-26T06:13:22;100090.91;;;7.44;85.23
72055;BME280;59936;51.490;5.436;2023-03-26T06:15:48;100082.06;;;7.44;86.72
72055;BME280;59936;51.490;5.436;2023-03-26T06:18:14;100084.06;;;7.42;86.14
72055;BME280;59936;51.490;5.436;2023-03-26T06:20:40;100078.72;;;7.42;85.48
72055;BME280;59936;51.490;5.436;2023-03-26T06:23:06;100073.41;;;7.42;84.42
72055;BME280;59936;51.490;5.436;2023-03-26T06:25:32;100076.91;;;7.42;83.65
72055;BME280;59936;51.490;5.436;2023-03-26T06:27:58;100075.06;;;7.43;85.16
72055;BME280;59936;51.490;5.436;2023-03-26T06:30:24;100069.75;;;7.43;84.92
72055;BME280;59936;51.490;5.436;2023-03-26T06:32:50;100081.59;;;7.48;84.45
72055;BME280;59936;51.490;5.436;2023-03-26T06:35:16;100081.59;;;7.48;84.45
72055;BME280;59936;51.490;5.436;2023-03-26T06:37:41;100077.59;;;7.44;84.45
72055;BME280;59936;51.490;5.436;2023-03-26T06:40:07;100076.75;;;7.44;85.99
72055;BME280;59936;51.490;5.436;2023-03-26T06:42:33;100075.06;;;7.43;84.09
72055;BME280;59936;51.490;5.436;2023-03-26T06:44:59;100075.59;;;7.46;83.52
72055;BME280;59936;51.490;5.436;2023-03-26T06:47:25;100072.63;;;7.49;86.59
72055;BME280;59936;51.490;5.436;2023-03-26T06:49:51;100072.63;;;7.49;86.59
72055;BME280;59936;51.490;5.436;2023-03-26T06:52:17;100081.75;;;7.47;86.05
72055;BME280;59936;51.490;5.436;2023-03-26T06:54:43;100087.09;;;7.47;85.22
72055;BME280;59936;51.490;5.436;2023-03-26T06:57:08;100085.09;;;7.49;86.10
72055;BME280;59936;51.490;5.436;2023-03-26T06:59:34;100087.41;;;7.44;86.11
72055;BME280;59936;51.490;5.436;2023-03-26T07:02:00;100086.41;;;7.45;85.03
72055;BME280;59936;51.490;5.436;2023-03-26T07:04:26;100083.75;;;7.45;83.43
72055;BME280;59936;51.490;5.436;2023-03-26T07:06:52;100079.09;;;7.47;85.77
72055;BME280;59936;51.490;5.436;2023-03-26T07:09:17;100075.44;;;7.48;84.62
72055;BME280;59936;51.490;5.436;2023-03-26T07:11:43;100077.25;;;7.47;84.66
72055;BME280;59936;51.490;5.436;2023-03-26T07:14:09;100072.78;;;7.48;86.00
72055;BME280;59936;51.490;5.436;2023-03-26T07:16:35;100064.78;;;7.48;87.93
72055;BME280;59936;51.490;5.436;2023-03-26T07:19:01;100069.28;;;7.47;86.28
72055;BME280;59936;51.490;5.436;2023-03-26T07:21:27;100063.13;;;7.47;85.33
72055;BME280;59936;51.490;5.436;2023-03-26T07:23:52;100063.78;;;7.49;83.99
72055;BME280;59936;51.490;5.436;2023-03-26T07:29:20;100053.97;;;7.49;85.63
72055;BME280;59936;51.490;5.436;2023-03-26T07:32:06;100054.81;;;7.50;84.41
72055;BME280;59936;51.490;5.436;2023-03-26T07:34:56;100049.28;;;7.51;85.20
72055;BME280;59936;51.490;5.436;2023-03-26T07:37:39;100045.47;;;7.54;85.08
72055;BME280;59936;51.490;5.436;2023-03-26T07:45:50;100039.16;;;7.63;85.71
72055;BME280;59936;51.490;5.436;2023-03-26T07:48:23;100039.16;;;7.63;85.17
72055;BME280;59936;51.490;5.436;2023-03-26T07:50:50;100036.50;;;7.63;84.95
72055;BME280;59936;51.490;5.436;2023-03-26T07:53:16;100031.00;;;7.64;84.55
72055;BME280;59936;51.490;5.436;2023-03-26T07:55:52;100031.00;;;7.64;84.60
72055;BME280;59936;51.490;5.436;2023-03-26T08:06:55;100025.88;;;7.71;85.46
72055;BME280;59936;51.490;5.436;2023-03-26T08:09:34;100027.69;;;7.79;84.99
72055;BME280;59936;51.490;5.436;2023-03-26T08:12:37;100023.72;;;7.91;84.10
72055;BME280;59936;51.490;5.436;2023-03-26T08:15:24;100015.03;;;7.97;84.17
72055;BME280;59936;51.490;5.436;2023-03-26T08:17:55;100009.88;;;8.03;83.91
72055;BME280;59936;51.490;5.436;2023-03-26T08:23:04;100009.38;;;8.08;83.83
72055;BME280;59936;51.490;5.436;2023-03-26T08:25:33;100013.22;;;8.14;84.67
72055;BME280;59936;51.490;5.436;2023-03-26T08:28:18;100016.19;;;8.19;85.28
72055;BME280;59936;51.490;5.436;2023-03-26T08:30:46;100014.34;;;8.19;84.74
72055;BME280;59936;51.490;5.436;2023-03-26T08:33:19;100014.34;;;8.19;84.74
72055;BME280;59936;51.490;5.436;2023-03-26T08:35:46;100005.19;;;8.22;83.84
72055;BME280;59936;51.490;5.436;2023-03-26T08:38:16;100000.38;;;8.33;83.40
72055;BME280;59936;51.490;5.436;2023-03-26T08:57:37;100007.31;;;8.59;85.43
72055;BME280;59936;51.490;5.436;2023-03-26T09:03:38;99994.16;;;8.49;85.60
72055;BME280;59936;51.490;5.436;2023-03-26T09:23:48;100000.00;;;8.45;85.15
72055;BME280;59936;51.490;5.436;2023-03-26T09:26:37;99989.81;;;8.48;84.36
72055;BME280;59936;51.490;5.436;2023-03-26T09:37:56;100001.50;;;8.39;86.01
72055;BME280;59936;51.490;5.436;2023-03-26T10:00:38;99995.25;;;8.79;83.46
72055;BME280;59936;51.490;5.436;2023-03-26T10:08:33;99999.81;;;8.46;83.76
72055;BME280;59936;51.490;5.436;2023-03-26T10:16:59;100004.19;;;8.31;84.34
72055;BME280;59936;51.490;5.436;2023-03-26T10:19:44;100009.00;;;8.44;85.50
72055;BME280;59936;51.490;5.436;2023-03-26T10:33:20;100011.53;;;8.37;83.80
72055;BME280;59936;51.490;5.436;2023-03-26T10:36:26;100015.03;;;8.38;84.14
72055;BME280;59936;51.490;5.436;2023-03-26T10:41:58;100008.66;;;8.55;83.63
72055;BME280;59936;51.490;5.436;2023-03-26T10:47:37;100014.28;;;8.60;83.21
72055;BME280;59936;51.490;5.436;2023-03-26T10:50:25;100022.97;;;8.62;83.19
72055;BME280;59936;51.490;5.436;2023-03-26T10:55:41;100016.28;;;8.66;83.82
72055;BME280;59936;51.490;5.436;2023-03-26T10:58:22;100020.44;;;8.68;81.42
72055;BME280;59936;51.490;5.436;2023-03-26T11:03:42;100028.16;;;8.55;81.85
72055;BME280;59936;51.490;5.436;2023-03-26T11:06:25;100024.00;;;8.53;82.94
72055;BME280;59936;51.490;5.436;2023-03-26T11:20:06;100026.38;;;8.95;80.92
72055;BME280;59936;51.490;5.436;2023-03-26T11:22:49;100033.50;;;9.11;80.61
72055;BME280;59936;51.490;5.436;2023-03-26T11:25:29;100035.66;;;9.46;80.45
72055;BME280;59936;51.490;5.436;2023-03-26T11:28:16;100034.41;;;9.65;80.32
72055;BME280;59936;51.490;5.436;2023-03-26T11:33:42;100034.91;;;9.37;80.39
72055;BME280;59936;51.490;5.436;2023-03-26T11:36:12;100040.72;;;9.41;80.44
72055;BME280;59936;51.490;5.436;2023-03-26T11:38:42;100032.72;;;9.41;80.45
72055;BME280;59936;51.490;5.436;2023-03-26T11:41:12;100039.19;;;9.47;80.70
72055;BME280;59936;51.490;5.436;2023-03-26T11:43:39;100037.25;;;9.63;80.61
72055;BME280;59936;51.490;5.436;2023-03-26T11:46:09;100042.72;;;9.70;80.44
72055;BME280;59936;51.490;5.436;2023-03-26T11:48:46;100041.53;;;9.72;80.44
72055;BME280;59936;51.490;5.436;2023-03-26T11:51:29;100044.88;;;9.74;80.48
72055;BME280;59936;51.490;5.436;2023-03-26T11:53:55;100045.53;;;9.77;80.57
72055;BME280;59936;51.490;5.436;2023-03-26T11:59:03;100046.09;;;9.41;82.80
72055;BME280;59936;51.490;5.436;2023-03-26T12:01:48;100054.53;;;9.22;81.53
72055;BME280;59936;51.490;5.436;2023-03-26T12:04:17;100054.53;;;9.22;81.53
72055;BME280;59936;51.490;5.436;2023-03-26T12:06:52;100051.41;;;9.41;81.51
72055;BME280;59936;51.490;5.436;2023-03-26T12:09:19;100056.09;;;9.70;80.73
72055;BME280;59936;51.490;5.436;2023-03-26T12:11:46;100055.06;;;9.71;80.31
72055;BME280;59936;51.490;5.436;2023-03-26T12:14:23;100057.56;;;9.72;80.95
72055;BME280;59936;51.490;5.436;2023-03-26T12:17:07;100064.38;;;9.83;80.98
72055;BME280;59936;51.490;5.436;2023-03-26T12:19:39;100053.91;;;9.96;81.25
72055;BME280;59936;51.490;5.436;2023-03-26T12:22:10;100062.88;;;10.03;80.66
72055;BME280;59936;51.490;5.436;2023-03-26T12:25:21;100062.88;;;10.03;80.66
72055;BME280;59936;51.490;5.436;2023-03-26T12:30:29;100057.19;;;10.44;79.22
72055;BME280;59936;51.490;5.436;2023-03-26T12:32:59;100055.53;;;10.43;79.84
72055;BME280;59936;51.490;5.436;2023-03-26T12:35:27;100072.56;;;10.04;80.96
72055;BME280;59936;51.490;5.436;2023-03-26T12:37:55;100072.56;;;10.04;80.96
72055;BME280;59936;51.490;5.436;2023-03-26T12:40:38;100072.94;;;10.24;80.73
72055;BME280;59936;51.490;5.436;2023-03-26T12:43:20;100073.03;;;10.31;80.17
72055;BME280;59936;51.490;5.436;2023-03-26T12:45:49;100073.50;;;10.34;80.27
72055;BME280;59936;51.490;5.436;2023-03-26T12:48:18;100065.94;;;10.38;79.96
72055;BME280;59936;51.490;5.436;2023-03-26T12:56:30;100072.81;;;9.95;80.65
72055;BME280;59936;51.490;5.436;2023-03-26T13:04:36;100081.41;;;9.51;81.92
72055;BME280;59936;51.490;5.436;2023-03-26T13:07:42;100085.00;;;9.35;82.09
72055;BME280;59936;51.490;5.436;2023-03-26T13:10:42;100091.69;;;9.31;82.69
72055;BME280;59936;51.490;5.436;2023-03-26T13:15:52;100096.03;;;9.32;82.16
72055;BME280;59936;51.490;5.436;2023-03-26T13:21:15;100092.03;;;9.28;83.17
72055;BME280;59936;51.490;5.436;2023-03-26T13:24:17;100093.13;;;9.50;82.58
72055;BME280;59936;51.490;5.436;2023-03-26T13:46:51;100098.38;;;11.25;78.85
72055;BME280;59936;51.490;5.436;2023-03-26T13:49:29;100113.56;;;11.18;78.17
72055;BME280;59936;51.490;5.436;2023-03-26T13:52:01;100108.69;;;10.84;78.88
72055;BME280;59936;51.490;5.436;2023-03-26T13:54:35;100116.97;;;10.36;80.18
72055;BME280;59936;51.490;5.436;2023-03-26T13:57:28;100121.22;;;9.77;81.61
72055;BME280;59936;51.490;5.436;2023-03-26T14:00:14;100121.56;;;9.35;82.43
72055;BME280;59936;51.490;5.436;2023-03-26T14:02:45;100135.00;;;9.02;83.67
72055;BME280;59936;51.490;5.436;2023-03-26T14:05:33;100140.56;;;8.77;84.16
72055;BME280;59936;51.490;5.436;2023-03-26T14:08:20;100147.56;;;8.61;84.26
72055;BME280;59936;51.490;5.436;2023-03-26T14:10:51;100147.56;;;8.53;84.37
72055;BME280;59936;51.490;5.436;2023-03-26T14:16:23;100148.25;;;8.55;83.94
72055;BME280;59936;51.490;5.436;2023-03-26T14:19:08;100149.72;;;8.66;84.38
72055;BME280;59936;51.490;5.436;2023-03-26T14:24:40;100155.25;;;8.81;83.53
72055;BME280;59936;51.490;5.436;2023-03-26T14:27:23;100171.44;;;8.79;83.56
72055;BME280;59936;51.490;5.436;2023-03-26T14:46:52;100202.44;;;8.56;85.65
72055;BME280;59936;51.490;5.436;2023-03-26T14:54:50;100207.25;;;8.60;83.89
72055;BME280;59936;51.490;5.436;2023-03-26T15:11:30;100241.63;;;9.04;82.61
72055;BME280;59936;51.490;5.436;2023-03-26T15:19:44;100249.69;;;9.12;81.57
72055;BME280;59936;51.490;5.436;2023-03-26T15:28:05;100269.50;;;8.85;82.17
72055;BME280;59936;51.490;5.436;2023-03-26T15:33:45;100288.66;;;8.48;83.29
72055;BME280;59936;51.490;5.436;2023-03-26T15:45:14;100311.38;;;8.18;83.44
72055;BME280;59936;51.490;5.436;2023-03-26T15:48:13;100313.19;;;8.10;83.98
72055;BME280;59936;51.490;5.436;2023-03-26T15:56:29;100325.28;;;7.96;84.35
72055;BME280;59936;51.490;5.436;2023-03-26T15:59:16;100324.50;;;8.03;84.16
72055;BME280;59936;51.490;5.436;2023-03-26T16:04:52;100341.84;;;8.08;84.14
72055;BME280;59936;51.490;5.436;2023-03-26T16:10:22;100353.66;;;8.05;84.94
72055;BME280;59936;51.490;5.436;2023-03-26T16:18:52;100357.69;;;8.09;83.31
72055;BME280;59936;51.490;5.436;2023-03-26T16:21:36;100361.88;;;8.12;83.26
72055;BME280;59936;51.490;5.436;2023-03-26T16:29:26;100376.88;;;8.13;83.27
72055;BME280;59936;51.490;5.436;2023-03-26T16:37:13;100398.00;;;8.06;81.57
72055;BME280;59936;51.490;5.436;2023-03-26T16:39:50;100406.78;;;7.98;80.67
72055;BME280;59936;51.490;5.436;2023-03-26T16:42:29;100409.25;;;7.92;81.13
72055;BME280;59936;51.490;5.436;2023-03-26T16:45:07;100409.81;;;7.78;79.32
72055;BME280;59936;51.490;5.436;2023-03-26T16:47:50;100423.28;;;7.76;79.88
72055;BME280;59936;51.490;5.436;2023-03-26T16:50:25;100434.44;;;7.72;79.93
72055;BME280;59936;51.490;5.436;2023-03-26T16:53:04;100438.25;;;7.69;79.89
72055;BME280;59936;51.490;5.436;2023-03-26T16:55:53;100443.88;;;7.66;79.46
72055;BME280;59936;51.490;5.436;2023-03-26T17:04:03;100480.41;;;7.56;79.67
72055;BME280;59936;51.490;5.436;2023-03-26T17:09:44;100496.34;;;7.48;79.99
72055;BME280;59936;51.490;5.436;2023-03-26T17:17:48;100511.97;;;7.33;75.32
72055;BME280;59936;51.490;5.436;2023-03-26T17:20:24;100526.97;;;7.34;76.11
72055;BME280;59936;51.490;5.436;2023-03-26T17:28:29;100533.91;;;7.27;75.75
72055;BME280;59936;51.490;5.436;2023-03-26T17:33:36;100548.22;;;7.26;77.82
72055;BME280;59936;51.490;5.436;2023-03-26T17:41:55;100565.63;;;7.20;78.26
72055;BME280;59936;51.490;5.436;2023-03-26T17:47:41;100594.22;;;7.18;77.38
72055;BME280;59936;51.490;5.436;2023-03-26T17:50:15;100594.22;;;7.18;77.38
72055;BME280;59936;51.490;5.436;2023-03-26T17:53:11;100596.47;;;7.13;77.44
72055;BME280;59936;51.490;5.436;2023-03-26T17:55:42;100598.22;;;7.05;75.76
72055;BME280;59936;51.490;5.436;2023-03-26T17:58:41;100606.06;;;7.06;76.34
72055;BME280;59936;51.490;5.436;2023-03-26T18:06:13;100639.28;;;6.92;76.75
72055;BME280;59936;51.490;5.436;2023-03-26T18:12:07;100641.84;;;6.84;75.21
72055;BME280;59936;51.490;5.436;2023-03-26T18:17:46;100661.88;;;6.79;75.89
72055;BME280;59936;51.490;5.436;2023-03-26T18:20:23;100666.66;;;6.75;76.80
72055;BME280;59936;51.490;5.436;2023-03-26T18:22:51;100672.41;;;6.71;76.11
72055;BME280;59936;51.490;5.436;2023-03-26T18:25:51;100667.47;;;6.66;76.89
72055;BME280;59936;51.490;5.436;2023-03-26T18:28:12;100671.41;;;6.62;75.97
72055;BME280;59936;51.490;5.436;2023-03-26T18:30:45;100685.56;;;6.62;74.74
72055;BME280;59936;51.490;5.436;2023-03-26T18:33:13;100684.84;;;6.60;75.17
72055;BME280;59936;51.490;5.436;2023-03-26T18:35:58;100702.22;;;6.55;75.37
72055;BME280;59936;51.490;5.436;2023-03-26T18:38:24;100707.66;;;6.53;71.91
72055;BME280;59936;51.490;5.436;2023-03-26T18:40:52;100713.13;;;6.52;74.42
72055;BME280;59936;51.490;5.436;2023-03-26T18:43:20;100727.13;;;6.54;74.05
72055;BME280;59936;51.490;5.436;2023-03-26T18:45:49;100715.66;;;6.53;73.51
72055;BME280;59936;51.490;5.436;2023-03-26T18:48:17;100721.97;;;6.43;72.94
72055;BME280;59936;51.490;5.436;2023-03-26T18:50:44;100728.09;;;6.43;71.23